createdAt,value
2022-11-26T00:00:54.507Z,32.08
2022-11-26T00:03:22.556Z,36.95
2022-11-26T00:05:52.201Z,38.60
2022-11-26T00:08:33.358Z,41.90
2022-11-26T00:11:01.878Z,40.10
2022-11-26T00:13:31.819Z,40.53
2022-11-26T00:15:59.278Z,41.05
2022-11-26T00:18:26.985Z,42.80
2022-11-26T00:21:01.373Z,40.85
2022-11-26T00:23:29.244Z,42.15
2022-11-26T00:26:17.789Z,40.63
2022-11-26T00:28:58.326Z,41.63
2022-11-26T00:31:27.464Z,43.85
2022-11-26T00:33:57.060Z,40.00
2022-11-26T00:36:31.968Z,39.83
2022-11-26T00:39:24.093Z,39.00
2022-11-26T00:41:53.836Z,38.65
2022-11-26T00:44:24.360Z,40.53
2022-11-26T00:46:52.353Z,43.47
2022-11-26T00:49:21.276Z,37.25
2022-11-26T00:51:57.101Z,36.47
2022-11-26T00:54:25.364Z,36.05
2022-11-26T00:56:52.873Z,38.35
2022-11-26T00:59:22.795Z,36.83
2022-11-26T01:01:50.874Z,36.42
2022-11-26T01:04:19.254Z,36.92
2022-11-26T01:06:46.864Z,37.60
2022-11-26T01:09:18.823Z,40.30
2022-11-26T01:11:50.917Z,42.33
2022-11-26T01:14:22.378Z,44.92
2022-11-26T01:16:57.465Z,45.25
2022-11-26T01:19:25.081Z,46.90
2022-11-26T01:21:52.438Z,49.00
2022-11-26T01:24:19.862Z,46.50
2022-11-26T01:26:46.880Z,47.05
2022-11-26T01:29:16.550Z,48.95
2022-11-26T01:31:44.195Z,48.45
2022-11-26T01:34:11.338Z,48.85
2022-11-26T01:36:40.875Z,48.60
2022-11-26T01:39:19.229Z,47.90
2022-11-26T01:42:13.353Z,51.67
2022-11-26T01:44:40.753Z,50.08
2022-11-26T01:47:40.444Z,49.20
2022-11-26T01:50:32.466Z,50.10
2022-11-26T01:53:09.818Z,51.78
2022-11-26T01:55:45.217Z,53.17
2022-11-26T01:58:19.001Z,54.60
2022-11-26T02:00:49.178Z,53.13
2022-11-26T02:03:18.463Z,53.13
2022-11-26T02:05:56.774Z,52.55
2022-11-26T02:08:32.287Z,50.75
2022-11-26T02:10:59.514Z,49.03
2022-11-26T02:13:27.163Z,50.10
2022-11-26T02:16:15.341Z,51.55
2022-11-26T02:18:52.134Z,49.88
2022-11-26T02:21:28.447Z,47.88
2022-11-26T02:24:15.858Z,48.75
2022-11-26T02:27:00.754Z,48.90
2022-11-26T02:30:06.777Z,46.95
2022-11-26T02:32:39.615Z,42.65
2022-11-26T02:35:29.318Z,45.85
2022-11-26T02:38:01.573Z,43.42
2022-11-26T02:40:29.606Z,43.00
2022-11-26T02:42:57.266Z,40.40
2022-11-26T02:45:28.967Z,40.38
2022-11-26T02:47:59.994Z,41.13
2022-11-26T02:50:35.319Z,41.03
2022-11-26T02:53:04.837Z,43.30
2022-11-26T02:55:40.420Z,43.70
2022-11-26T02:58:08.104Z,43.83
2022-11-26T03:00:38.315Z,42.70
2022-11-26T03:03:40.376Z,42.38
2022-11-26T03:06:11.884Z,46.05
2022-11-26T03:08:39.244Z,45.03
2022-11-26T03:11:07.119Z,48.58
2022-11-26T03:13:34.703Z,43.42
2022-11-26T03:16:02.039Z,43.63
2022-11-26T03:18:29.475Z,45.03
2022-11-26T03:20:57.071Z,45.35
2022-11-26T03:23:25.357Z,44.78
2022-11-26T03:26:05.743Z,43.00
2022-11-26T03:28:33.124Z,44.85
2022-11-26T03:31:00.621Z,43.67
2022-11-26T03:33:28.055Z,42.72
2022-11-26T03:35:55.416Z,41.53
2022-11-26T03:38:22.434Z,43.63
2022-11-26T03:40:58.328Z,45.38
2022-11-26T03:43:26.624Z,46.03
2022-11-26T03:45:54.106Z,47.97
2022-11-26T03:48:21.864Z,47.08
2022-11-26T03:50:56.058Z,46.50
2022-11-26T03:53:24.684Z,46.08
2022-11-26T03:55:53.021Z,47.05
2022-11-26T03:58:22.218Z,46.20
2022-11-26T04:00:49.499Z,47.42
2022-11-26T04:03:17.222Z,47.95
2022-11-26T04:05:45.354Z,49.08
2022-11-26T04:08:13.764Z,49.25
2022-11-26T04:10:40.857Z,47.97
2022-11-26T04:13:07.867Z,50.28
2022-11-26T04:15:35.361Z,49.97
2022-11-26T04:18:02.774Z,50.05
2022-11-26T04:20:30.200Z,49.72
2022-11-26T04:22:57.610Z,51.72
2022-11-26T04:25:26.395Z,51.83
2022-11-26T04:27:53.466Z,47.92
2022-11-26T04:30:20.726Z,49.35
2022-11-26T04:32:47.991Z,50.30
2022-11-26T04:35:15.613Z,50.75
2022-11-26T04:37:42.833Z,50.47
2022-11-26T04:40:11.660Z,49.33
2022-11-26T04:42:46.350Z,49.20
2022-11-26T04:45:13.572Z,50.58
2022-11-26T04:47:43.105Z,50.42
2022-11-26T04:50:13.512Z,51.13
2022-11-26T04:52:41.225Z,50.53
2022-11-26T04:55:08.956Z,50.15
2022-11-26T04:57:36.405Z,51.38
2022-11-26T05:00:05.739Z,54.00
2022-11-26T05:02:33.895Z,48.10
2022-11-26T05:05:01.312Z,46.20
2022-11-26T05:07:28.830Z,46.50
2022-11-26T05:09:56.267Z,48.58
2022-11-26T05:12:23.753Z,47.70
2022-11-26T05:14:51.122Z,46.72
2022-11-26T05:17:19.002Z,47.35
2022-11-26T05:19:48.091Z,45.67
2022-11-26T05:22:16.564Z,47.42
2022-11-26T05:24:45.019Z,45.38
2022-11-26T05:27:11.991Z,46.42
2022-11-26T05:29:38.972Z,45.03
2022-11-26T05:32:06.449Z,46.03
2022-11-26T05:34:40.891Z,47.80
2022-11-26T05:37:08.673Z,48.90
2022-11-26T05:39:37.067Z,49.90
2022-11-26T05:42:08.910Z,49.25
2022-11-26T05:44:37.416Z,48.38
2022-11-26T05:47:04.940Z,48.55
2022-11-26T05:49:31.948Z,48.97
2022-11-26T05:52:00.105Z,47.53
2022-11-26T05:54:27.327Z,47.42
2022-11-26T05:56:59.938Z,48.58
2022-11-26T05:59:27.987Z,50.47
2022-11-26T06:01:55.421Z,50.20
2022-11-26T06:04:23.083Z,52.13
2022-11-26T06:06:50.196Z,51.90
2022-11-26T06:09:19.347Z,51.72
2022-11-26T06:11:46.654Z,50.92
2022-11-26T06:14:14.607Z,52.15
2022-11-26T06:16:42.726Z,49.20
2022-11-26T06:19:11.565Z,48.00
2022-11-26T06:21:38.821Z,48.42
2022-11-26T06:24:08.118Z,46.58
2022-11-26T06:26:36.538Z,45.83
2022-11-26T06:29:05.052Z,44.30
2022-11-26T06:31:33.362Z,45.08
2022-11-26T06:34:00.618Z,45.38
2022-11-26T06:36:27.997Z,48.50
2022-11-26T06:38:55.543Z,48.25
2022-11-26T06:41:22.809Z,49.15
2022-11-26T06:43:50.366Z,46.85
2022-11-26T06:46:17.781Z,44.88
2022-11-26T06:48:45.241Z,43.47
2022-11-26T06:51:15.814Z,43.42
2022-11-26T06:53:43.482Z,43.15
2022-11-26T06:56:18.410Z,43.60
2022-11-26T06:58:47.737Z,44.00
2022-11-26T07:01:18.855Z,43.83
2022-11-26T07:03:47.033Z,43.92
2022-11-26T07:06:25.877Z,45.30
2022-11-26T07:08:54.614Z,43.63
2022-11-26T07:11:24.157Z,41.08
2022-11-26T07:13:51.849Z,42.28
2022-11-26T07:16:20.476Z,43.10
2022-11-26T07:18:57.693Z,44.03
2022-11-26T07:21:34.360Z,43.00
2022-11-26T07:24:01.251Z,42.92
2022-11-26T07:26:28.243Z,42.72
2022-11-26T07:28:55.798Z,43.75
2022-11-26T07:31:24.088Z,42.38
2022-11-26T07:33:52.456Z,42.80
2022-11-26T07:36:24.563Z,42.45
2022-11-26T07:38:58.004Z,42.33
2022-11-26T07:41:28.384Z,41.38
2022-11-26T07:43:55.871Z,41.45
2022-11-26T07:46:25.995Z,39.25
2022-11-26T07:48:59.932Z,40.67
2022-11-26T07:51:32.986Z,40.55
2022-11-26T07:54:08.574Z,40.45
2022-11-26T07:56:36.746Z,41.03
2022-11-26T07:59:04.194Z,39.55
2022-11-26T08:01:32.980Z,41.42
2022-11-26T08:04:01.150Z,41.38
2022-11-26T08:06:30.386Z,41.00
2022-11-26T08:09:00.504Z,44.20
2022-11-26T08:11:30.275Z,56.00
2022-11-26T08:14:01.165Z,78.30
2022-11-26T08:16:29.394Z,77.25
2022-11-26T08:19:05.509Z,60.30
2022-11-26T08:21:33.720Z,54.40
2022-11-26T08:24:08.199Z,44.03
2022-11-26T08:26:42.452Z,47.65
2022-11-26T08:29:14.877Z,41.53
2022-11-26T08:31:46.471Z,40.40
2022-11-26T08:34:16.226Z,37.78
2022-11-26T08:36:45.653Z,35.67
2022-11-26T08:39:18.112Z,33.83
2022-11-26T08:41:50.568Z,34.97
2022-11-26T08:44:19.593Z,32.38
2022-11-26T08:46:49.186Z,36.13
2022-11-26T08:49:17.302Z,32.92
2022-11-26T08:51:44.716Z,31.70
2022-11-26T08:54:12.345Z,31.75
2022-11-26T08:56:39.962Z,27.83
2022-11-26T08:59:07.107Z,27.10
2022-11-26T09:01:34.825Z,26.50
2022-11-26T09:04:03.715Z,23.00
2022-11-26T09:06:33.372Z,23.70
2022-11-26T09:09:13.719Z,22.92
2022-11-26T09:11:45.902Z,24.52
2022-11-26T09:14:14.195Z,22.50
2022-11-26T09:16:42.438Z,23.15
2022-11-26T09:19:14.399Z,22.33
2022-11-26T09:21:41.953Z,21.27
2022-11-26T09:24:09.347Z,22.25
2022-11-26T09:26:37.081Z,23.25
2022-11-26T09:29:06.706Z,19.85
2022-11-26T09:31:33.724Z,22.60
2022-11-26T09:34:02.350Z,21.95
2022-11-26T09:36:32.033Z,21.00
2022-11-26T09:38:59.966Z,20.75
2022-11-26T09:42:07.117Z,21.13
2022-11-26T09:45:03.029Z,20.70
2022-11-26T09:47:39.505Z,19.75
2022-11-26T09:50:06.804Z,19.35
2022-11-26T09:53:01.946Z,19.73
2022-11-26T09:55:40.663Z,21.60
2022-11-26T09:58:34.827Z,20.10
2022-11-26T10:03:35.315Z,21.02
2022-11-26T10:06:36.074Z,32.40
2022-11-26T10:09:35.998Z,23.90
2022-11-26T10:12:25.886Z,24.08
2022-11-26T10:14:56.736Z,21.40
2022-11-26T10:17:26.796Z,22.27
2022-11-26T10:20:18.845Z,21.90
2022-11-26T10:22:57.388Z,23.73
2022-11-26T10:25:31.447Z,21.42
2022-11-26T10:27:59.638Z,20.40
2022-11-26T10:30:30.523Z,18.33
2022-11-26T10:33:02.837Z,34.15
2022-11-26T10:35:30.407Z,189.57
2022-11-26T10:37:58.324Z,33.05
2022-11-26T10:40:32.558Z,17.15
2022-11-26T10:43:08.813Z,19.70
2022-11-26T10:45:44.457Z,15.50
2022-11-26T10:48:37.813Z,16.75
2022-11-26T10:51:26.414Z,16.93
2022-11-26T10:54:05.232Z,17.92
2022-11-26T10:56:42.347Z,32.15
2022-11-26T10:59:30.667Z,19.77
2022-11-26T11:02:04.518Z,18.75
2022-11-26T11:04:40.876Z,19.67
2022-11-26T11:07:39.073Z,23.73
2022-11-26T11:10:14.316Z,18.75
2022-11-26T11:12:50.255Z,33.70
2022-11-26T11:15:27.685Z,32.90
2022-11-26T11:18:05.385Z,24.08
2022-11-26T11:20:40.727Z,19.35
2022-11-26T11:23:11.227Z,20.88
2022-11-26T11:25:46.327Z,22.65
2022-11-26T11:28:20.587Z,14.70
2022-11-26T11:30:59.915Z,14.98
2022-11-26T11:33:28.947Z,17.73
2022-11-26T11:36:01.667Z,28.65
2022-11-26T11:38:32.135Z,16.63
2022-11-26T11:41:03.827Z,22.85
2022-11-26T11:43:36.506Z,15.40
2022-11-26T11:46:37.607Z,18.57
2022-11-26T11:49:30.426Z,16.05
2022-11-26T11:52:20.785Z,10.00
2022-11-26T11:55:00.515Z,11.18
2022-11-26T11:57:53.293Z,8.05
2022-11-26T12:00:26.632Z,8.07
2022-11-26T12:02:57.551Z,7.20
2022-11-26T12:05:37.666Z,8.85
2022-11-26T12:08:22.305Z,13.57
2022-11-26T12:11:13.546Z,10.52
2022-11-26T12:13:48.635Z,7.40
2022-11-26T12:16:19.180Z,8.70
2022-11-26T12:18:55.478Z,12.27
2022-11-26T12:22:17.226Z,9.00
2022-11-26T12:24:51.183Z,13.07
2022-11-26T12:27:28.027Z,11.80
2022-11-26T12:30:13.467Z,16.00
2022-11-26T12:32:54.188Z,12.77
2022-11-26T12:35:52.957Z,8.93
2022-11-26T12:38:29.044Z,14.27
2022-11-26T12:41:11.567Z,10.75
2022-11-26T12:44:02.203Z,10.27
2022-11-26T12:46:58.404Z,13.23
2022-11-26T12:49:30.533Z,17.67
2022-11-26T12:52:09.804Z,12.98
2022-11-26T12:54:54.976Z,15.18
2022-11-26T12:57:30.970Z,11.93
2022-11-26T13:00:25.616Z,23.20
2022-11-26T13:02:55.335Z,17.25
2022-11-26T13:05:48.589Z,11.32
2022-11-26T13:08:27.251Z,10.80
2022-11-26T13:11:45.443Z,10.95
2022-11-26T13:14:12.363Z,11.10
2022-11-26T13:17:10.123Z,11.60
2022-11-26T13:19:56.242Z,12.15
2022-11-26T13:23:02.086Z,16.27
2022-11-26T13:25:51.699Z,17.58
2022-11-26T13:28:47.811Z,12.93
2022-11-26T13:31:37.345Z,12.43
2022-11-26T13:34:18.073Z,13.07
2022-11-26T13:37:21.784Z,13.45
2022-11-26T13:39:48.693Z,15.32
2022-11-26T13:42:43.034Z,14.98
2022-11-26T13:45:19.024Z,14.57
2022-11-26T13:47:55.995Z,15.90
2022-11-26T13:50:44.944Z,15.05
2022-11-26T13:53:38.731Z,14.82
2022-11-26T13:56:09.945Z,15.52
2022-11-26T13:58:52.505Z,15.30
2022-11-26T14:01:37.384Z,16.23
2022-11-26T14:04:24.784Z,17.73
2022-11-26T14:07:04.657Z,17.17
2022-11-26T14:09:44.637Z,62.00
2022-11-26T14:12:13.234Z,22.55
2022-11-26T14:14:42.415Z,23.27
2022-11-26T14:17:32.487Z,28.10
2022-11-26T14:20:04.133Z,25.10
2022-11-26T14:22:34.242Z,23.30
2022-11-26T14:25:10.440Z,24.15
2022-11-26T14:27:42.562Z,23.25
2022-11-26T14:30:09.834Z,26.63
2022-11-26T14:33:04.660Z,26.17
2022-11-26T14:35:40.748Z,26.83
2022-11-26T14:38:24.027Z,27.55
2022-11-26T14:41:01.553Z,27.48
2022-11-26T14:43:29.837Z,27.52
2022-11-26T14:46:17.774Z,28.48
2022-11-26T14:48:48.040Z,52.97
2022-11-26T14:51:26.846Z,30.90
2022-11-26T14:53:57.267Z,39.72
2022-11-26T14:56:26.146Z,30.52
2022-11-26T14:58:57.786Z,30.10
2022-11-26T15:01:27.139Z,33.75
2022-11-26T15:03:59.006Z,46.53
2022-11-26T15:06:35.200Z,47.08
2022-11-26T15:09:08.320Z,31.63
2022-11-26T15:11:38.241Z,35.45
2022-11-26T15:14:05.804Z,31.48
2022-11-26T15:16:36.964Z,28.73
2022-11-26T15:19:06.043Z,39.05
2022-11-26T15:21:34.764Z,41.40
2022-11-26T15:24:09.491Z,38.92
2022-11-26T15:26:38.760Z,30.48
2022-11-26T15:29:34.200Z,30.83
2022-11-26T15:32:01.680Z,27.25
2022-11-26T15:34:30.730Z,32.65
2022-11-26T15:37:00.524Z,32.63
2022-11-26T15:39:36.067Z,30.92
2022-11-26T15:42:21.828Z,31.92
2022-11-26T15:44:50.028Z,32.33
2022-11-26T15:47:20.669Z,32.60
2022-11-26T15:49:53.044Z,33.53
2022-11-26T15:52:25.348Z,34.10
2022-11-26T15:55:21.883Z,35.92
2022-11-26T15:57:52.149Z,34.38
2022-11-26T16:00:27.308Z,33.53
2022-11-26T16:02:54.796Z,34.65
2022-11-26T16:05:39.710Z,38.08
2022-11-26T16:08:31.079Z,35.05
2022-11-26T16:11:19.717Z,35.30
2022-11-26T16:13:48.081Z,34.25
2022-11-26T16:16:20.569Z,35.35
2022-11-26T16:18:56.278Z,34.35
2022-11-26T16:21:28.995Z,33.92
2022-11-26T16:24:08.443Z,36.63
2022-11-26T16:26:55.308Z,36.58
2022-11-26T16:29:22.396Z,34.17
2022-11-26T16:31:49.516Z,34.15
2022-11-26T16:34:16.788Z,39.90
2022-11-26T16:36:44.508Z,45.03
2022-11-26T16:39:16.837Z,35.55
2022-11-26T16:41:44.225Z,34.92
2022-11-26T16:44:11.277Z,43.28
2022-11-26T16:46:41.277Z,42.35
2022-11-26T16:49:11.237Z,44.15
2022-11-26T16:51:39.076Z,46.92
2022-11-26T16:54:08.226Z,46.47
2022-11-26T16:56:38.761Z,51.40
2022-11-26T16:59:14.389Z,52.95
2022-11-26T17:01:41.874Z,47.45
2022-11-26T17:04:11.865Z,47.97
2022-11-26T17:06:39.751Z,47.63
2022-11-26T17:09:06.721Z,43.38
2022-11-26T17:11:34.145Z,42.25
2022-11-26T17:14:03.465Z,43.65
2022-11-26T17:16:32.956Z,45.28
2022-11-26T17:19:09.745Z,47.58
2022-11-26T17:21:39.139Z,42.40
2022-11-26T17:24:06.584Z,44.40
2022-11-26T17:26:34.040Z,41.28
2022-11-26T17:29:07.833Z,40.65
2022-11-26T17:31:37.744Z,41.35
2022-11-26T17:34:04.945Z,63.28
2022-11-26T17:36:36.612Z,56.00
2022-11-26T17:39:04.744Z,43.08
2022-11-26T17:41:32.903Z,44.45
2022-11-26T17:43:59.955Z,42.55
2022-11-26T17:46:27.793Z,42.95
2022-11-26T17:48:59.634Z,41.85
2022-11-26T17:51:28.783Z,45.92
2022-11-26T17:53:56.333Z,49.50
2022-11-26T17:56:27.719Z,49.85
2022-11-26T17:59:00.265Z,44.15
2022-11-26T18:01:28.804Z,45.35
2022-11-26T18:03:56.397Z,46.15
2022-11-26T18:06:55.393Z,47.25
2022-11-26T18:09:22.589Z,44.50
2022-11-26T18:11:52.952Z,43.75
2022-11-26T18:14:21.156Z,45.72
2022-11-26T18:16:49.455Z,45.13
2022-11-26T18:19:17.995Z,49.05
2022-11-26T18:21:45.704Z,48.72
2022-11-26T18:24:13.994Z,48.88
2022-11-26T18:26:42.259Z,57.85
2022-11-26T18:29:12.112Z,54.50
2022-11-26T18:31:39.984Z,49.22
2022-11-26T18:34:08.109Z,48.08
2022-11-26T18:36:35.473Z,48.75
2022-11-26T18:39:04.943Z,46.50
2022-11-26T18:41:33.076Z,45.08
2022-11-26T18:44:02.102Z,45.90
2022-11-26T18:46:29.694Z,67.78
2022-11-26T18:48:58.075Z,46.10
2022-11-26T18:51:25.912Z,43.92
2022-11-26T18:53:53.521Z,45.30
2022-11-26T18:56:24.998Z,45.60
2022-11-26T18:58:52.864Z,44.58
2022-11-26T19:01:31.055Z,47.45
2022-11-26T19:03:59.637Z,42.25
2022-11-26T19:06:34.472Z,44.45
2022-11-26T19:09:06.624Z,43.45
2022-11-26T19:11:34.506Z,45.20
2022-11-26T19:14:02.343Z,43.03
2022-11-26T19:16:29.773Z,44.35
2022-11-26T19:18:57.711Z,48.45
2022-11-26T19:21:28.396Z,59.50
2022-11-26T19:23:58.595Z,57.55
2022-11-26T19:26:26.424Z,50.70
2022-11-26T19:28:54.382Z,50.20
2022-11-26T19:31:24.755Z,53.80
2022-11-26T19:33:58.758Z,57.75
2022-11-26T19:36:27.664Z,56.13
2022-11-26T19:39:02.672Z,51.33
2022-11-26T19:41:31.794Z,59.72
2022-11-26T19:44:04.424Z,59.97
2022-11-26T19:46:33.053Z,59.25
2022-11-26T19:49:01.072Z,63.13
2022-11-26T19:51:28.954Z,63.25
2022-11-26T19:53:58.198Z,63.50
2022-11-26T19:56:35.859Z,62.63
2022-11-26T19:59:04.682Z,63.20
2022-11-26T20:01:34.793Z,62.42
2022-11-26T20:04:05.542Z,59.58
2022-11-26T20:06:35.602Z,59.75
2022-11-26T20:09:05.594Z,61.50
2022-11-26T20:11:36.926Z,64.00
2022-11-26T20:14:05.168Z,63.08
2022-11-26T20:16:33.368Z,65.00
2022-11-26T20:19:03.150Z,64.80
2022-11-26T20:21:34.276Z,58.72
2022-11-26T20:24:05.914Z,64.53
2022-11-26T20:26:40.636Z,73.15
2022-11-26T20:29:12.586Z,75.07
2022-11-26T20:31:46.274Z,80.25
2022-11-26T20:34:26.365Z,80.72
2022-11-26T20:36:55.034Z,74.95
2022-11-26T20:39:24.635Z,67.18
2022-11-26T20:41:52.592Z,64.03
2022-11-26T20:44:20.433Z,60.53
2022-11-26T20:46:48.086Z,58.35
2022-11-26T20:49:16.827Z,54.97
2022-11-26T20:51:44.543Z,58.58
2022-11-26T20:54:18.368Z,56.75
2022-11-26T20:56:47.508Z,60.70
2022-11-26T20:59:15.429Z,61.97
2022-11-26T21:01:43.039Z,64.95
2022-11-26T21:04:10.350Z,69.25
2022-11-26T21:06:37.905Z,66.45
2022-11-26T21:09:07.891Z,70.35
2022-11-26T21:11:36.284Z,64.72
2022-11-26T21:14:09.525Z,63.92
2022-11-26T21:16:40.487Z,79.43
2022-11-26T21:19:13.474Z,75.35
2022-11-26T21:21:41.074Z,77.72
2022-11-26T21:24:09.184Z,75.95
2022-11-26T21:26:37.513Z,80.03
2022-11-26T21:29:29.865Z,81.13
2022-11-26T21:31:59.626Z,69.40
2022-11-26T21:34:26.904Z,70.97
2022-11-26T21:36:53.906Z,63.35
2022-11-26T21:39:21.338Z,60.55
2022-11-26T21:41:48.814Z,63.22
2022-11-26T21:44:15.974Z,68.18
2022-11-26T21:46:43.218Z,67.35
2022-11-26T21:49:11.050Z,66.95
2022-11-26T21:51:38.137Z,64.20
2022-11-26T21:54:05.882Z,66.57
2022-11-26T21:56:33.819Z,68.15
2022-11-26T21:59:02.185Z,65.85
2022-11-26T22:01:32.184Z,65.70
2022-11-26T22:04:02.882Z,66.50
2022-11-26T22:06:31.311Z,67.45
2022-11-26T22:09:00.623Z,63.10
2022-11-26T22:11:31.948Z,62.13
2022-11-26T22:13:59.348Z,66.97
2022-11-26T22:16:27.833Z,67.22
2022-11-26T22:18:56.564Z,65.45
2022-11-26T22:21:27.052Z,62.42
2022-11-26T22:23:54.487Z,67.35
2022-11-26T22:26:22.588Z,63.00
2022-11-26T22:28:51.081Z,66.32
2022-11-26T22:31:22.471Z,67.30
2022-11-26T22:33:54.065Z,75.55
2022-11-26T22:36:21.607Z,79.28
2022-11-26T22:38:48.953Z,74.78
2022-11-26T22:41:16.546Z,69.40
2022-11-26T22:43:45.330Z,71.63
2022-11-26T22:46:19.374Z,67.18
2022-11-26T22:48:52.344Z,68.55
2022-11-26T22:51:20.696Z,63.90
2022-11-26T22:53:59.808Z,68.32
2022-11-26T22:56:27.923Z,69.60
2022-11-26T22:58:55.299Z,70.18
2022-11-26T23:01:28.525Z,66.93
2022-11-26T23:03:58.527Z,64.93
2022-11-26T23:06:28.155Z,59.78
2022-11-26T23:08:59.114Z,62.95
2022-11-26T23:11:33.072Z,66.10
2022-11-26T23:14:02.324Z,63.63
2022-11-26T23:16:30.778Z,65.05
2022-11-26T23:18:58.469Z,67.75
2022-11-26T23:21:34.717Z,62.45
2022-11-26T23:24:02.223Z,59.70
2022-11-26T23:26:33.293Z,56.42
2022-11-26T23:29:01.940Z,55.28
2022-11-26T23:31:33.084Z,55.67
2022-11-26T23:34:00.704Z,54.58
2022-11-26T23:36:29.425Z,52.80
2022-11-26T23:38:56.894Z,55.00
2022-11-26T23:41:23.974Z,57.10
2022-11-26T23:43:52.619Z,55.42
2022-11-26T23:46:22.905Z,54.47
2022-11-26T23:48:50.876Z,55.40
2022-11-26T23:51:22.079Z,50.70
2022-11-26T23:53:50.908Z,51.35
2022-11-26T23:56:26.310Z,50.03
2022-11-26T23:59:02.985Z,49.70
